Time;durP1;ratioP1;P1;durP2;ratioP2;P2;SDS_P1;SDS_P2;PMS_P1;PMS_P2;Temp;Humidity;BMP_temperature;BMP_pressure;BME280_temperature;BME280_humidity;BME280_pressure;Samples;Min_cycle;Max_cycle;Signal;HPM_P1;HPM_P2
2024/01/16 00:02:20;;;;;;;1.20;1.20;;;15.60;65.00;;;;;;5031117;28;43745;-82
2024/01/16 00:04:48;;;;;;;1.30;1.30;;;15.50;64.90;;;;;;5034959;28;43493;-82
2024/01/16 00:07:17;;;;;;;1.23;1.23;;;15.50;64.90;;;;;;5036766;28;43951;-81
2024/01/16 00:09:46;;;;;;;1.20;1.20;;;15.50;65.00;;;;;;5043946;28;43630;-77
2024/01/16 00:12:15;;;;;;;1.63;1.63;;;15.50;65.10;;;;;;5034517;28;43939;-77
2024/01/16 00:14:43;;;;;;;1.20;1.20;;;15.50;65.20;;;;;;5034725;28;43451;-78
2024/01/16 00:17:12;;;;;;;1.20;1.20;;;15.50;65.20;;;;;;5036621;28;43413;-77
2024/01/16 00:19:41;;;;;;;1.30;1.30;;;15.50;65.20;;;;;;5016383;28;43600;-77
2024/01/16 00:22:09;;;;;;;1.30;1.30;;;15.40;65.20;;;;;;5021436;28;45995;-77
2024/01/16 00:24:38;;;;;;;1.30;1.30;;;15.40;65.20;;;;;;5020113;28;44900;-77
2024/01/16 00:27:06;;;;;;;1.23;1.23;;;15.40;65.30;;;;;;5033938;28;43840;-76
2024/01/16 00:29:39;;;;;;;1.10;1.10;;;15.40;65.40;;;;;;5039566;28;43401;-77
2024/01/16 00:32:07;;;;;;;1.37;1.37;;;15.40;65.40;;;;;;5022524;28;45285;-77
2024/01/16 00:34:35;;;;;;;1.27;1.27;;;15.40;65.50;;;;;;5034854;28;43429;-77
2024/01/16 00:37:03;;;;;;;1.20;1.20;;;15.40;65.20;;;;;;5041461;28;43435;-77
2024/01/16 00:39:32;;;;;;;1.30;1.30;;;15.50;64.90;;;;;;5019180;28;43573;-77
2024/01/16 00:42:02;;;;;;;1.27;1.27;;;15.50;64.90;;;;;;5015518;28;45245;-76
2024/01/16 00:44:30;;;;;;;1.40;1.40;;;15.50;64.80;;;;;;5034856;28;43413;-78
2024/01/16 00:47:01;;;;;;;1.40;1.40;;;15.50;64.90;;;;;;5015080;28;43473;-77
2024/01/16 00:49:29;;;;;;;1.40;1.40;;;15.50;65.00;;;;;;5019279;28;43945;-78
2024/01/16 00:51:57;;;;;;;1.07;1.07;;;15.50;65.10;;;;;;5037654;28;43828;-77
2024/01/16 00:54:25;;;;;;;1.30;1.30;;;15.50;65.10;;;;;;5015591;28;44713;-77
2024/01/16 00:56:55;;;;;;;1.20;1.20;;;15.50;65.10;;;;;;5033183;28;43447;-77
2024/01/16 00:59:24;;;;;;;1.30;1.30;;;15.50;65.10;;;;;;5047047;28;44049;-77
2024/01/16 01:01:53;;;;;;;1.20;1.20;;;15.50;65.10;;;;;;5014466;28;44146;-78
2024/01/16 01:04:21;;;;;;;1.40;1.40;;;15.50;65.90;;;;;;5038717;28;43998;-77
2024/01/16 01:06:49;;;;;;;1.30;1.30;;;15.50;65.20;;;;;;5021879;28;43437;-77
2024/01/16 01:09:17;;;;;;;1.27;1.27;;;15.40;66.00;;;;;;5036963;28;43480;-77
2024/01/16 01:11:45;;;;;;;1.20;1.20;;;15.50;65.40;;;;;;5013850;28;43842;-77
2024/01/16 01:14:14;;;;;;;1.30;1.30;;;15.50;65.10;;;;;;5018986;28;44347;-77
2024/01/16 01:16:43;;;;;;;1.20;1.20;;;15.60;64.90;;;;;;5036461;28;43480;-77
2024/01/16 01:19:12;;;;;;;1.30;1.30;;;15.50;64.80;;;;;;5043630;28;43425;-77
2024/01/16 01:21:40;;;;;;;1.00;1.00;;;15.50;64.80;;;;;;5035865;28;43866;-77
2024/01/16 01:24:09;;;;;;;1.30;1.30;;;15.50;64.90;;;;;;5020692;28;44448;-77
2024/01/16 01:26:37;;;;;;;1.27;1.27;;;15.50;64.90;;;;;;5040075;28;43432;-77
2024/01/16 01:29:05;;;;;;;1.20;1.20;;;15.50;65.10;;;;;;5035577;28;43423;-76
2024/01/16 01:31:33;;;;;;;1.27;1.27;;;15.50;65.10;;;;;;5020295;28;45454;-77
2024/01/16 01:34:04;;;;;;;1.30;1.30;;;15.50;65.80;;;;;;5018279;28;44763;-77
2024/01/16 01:36:32;;;;;;;1.20;1.20;;;15.50;65.10;;;;;;5014164;28;43478;-77
2024/01/16 01:39:00;;;;;;;1.20;1.20;;;15.40;65.10;;;;;;5024417;28;43481;-77
2024/01/16 01:41:28;;;;;;;1.23;1.23;;;15.50;65.20;;;;;;5017224;28;44799;-77
2024/01/16 01:43:57;;;;;;;1.10;1.10;;;15.50;66.00;;;;;;5034621;28;43417;-77
2024/01/16 01:46:25;;;;;;;1.43;1.43;;;15.40;65.30;;;;;;5016961;28;43467;-77
2024/01/16 01:48:53;;;;;;;1.20;1.20;;;15.40;65.20;;;;;;5021568;28;43560;-77
2024/01/16 01:51:22;;;;;;;1.20;1.20;;;15.40;65.20;;;;;;5018179;28;45757;-77
2024/01/16 01:53:51;;;;;;;1.33;1.33;;;15.40;65.20;;;;;;5011716;28;43370;-77
2024/01/16 01:56:20;;;;;;;1.20;1.20;;;15.50;65.30;;;;;;5013930;28;43384;-77
2024/01/16 01:58:48;;;;;;;1.20;1.20;;;15.40;65.20;;;;;;5020386;28;44265;-77
2024/01/16 02:01:18;;;;;;;1.37;1.37;;;15.40;66.00;;;;;;5041101;28;43874;-77
2024/01/16 02:03:47;;;;;;;1.10;1.10;;;15.40;65.40;;;;;;5036389;28;43451;-78
2024/01/16 02:06:16;;;;;;;1.20;1.20;;;15.40;65.40;;;;;;5015962;28;43505;-77
2024/01/16 02:08:46;;;;;;;1.10;1.10;;;15.40;65.30;;;;;;5035887;28;43357;-77
2024/01/16 02:11:14;;;;;;;1.27;1.27;;;15.60;65.00;;;;;;5031150;28;43694;-77
2024/01/16 02:13:43;;;;;;;1.20;1.20;;;15.60;64.60;;;;;;5036732;28;43488;-76
2024/01/16 02:16:21;;;;;;;1.20;1.20;;;15.60;64.60;;;;;;5026821;28;43432;-77
2024/01/16 02:18:49;;;;;;;1.30;1.30;;;15.60;64.70;;;;;;5037713;28;43937;-77
2024/01/16 02:21:19;;;;;;;1.50;1.50;;;15.60;64.70;;;;;;5015309;28;44065;-77
2024/01/16 02:23:49;;;;;;;1.40;1.40;;;15.60;64.90;;;;;;5015281;28;45021;-76
2024/01/16 02:26:18;;;;;;;1.27;1.27;;;15.50;64.80;;;;;;5014503;28;43385;-77
2024/01/16 02:28:46;;;;;;;1.30;1.30;;;15.50;65.60;;;;;;5019566;28;43595;-82
2024/01/16 02:31:15;;;;;;;1.30;1.30;;;15.50;64.90;;;;;;5021269;28;45993;-82
2024/01/16 02:33:43;;;;;;;1.23;1.23;;;15.50;65.00;;;;;;5032356;28;43366;-81
2024/01/16 02:36:11;;;;;;;1.20;1.20;;;15.50;65.10;;;;;;5021275;28;43445;-81
2024/01/16 02:38:39;;;;;;;1.20;1.20;;;15.50;65.10;;;;;;5019112;28;43571;-81
2024/01/16 02:41:14;;;;;;;1.20;1.20;;;15.50;65.10;;;;;;5038576;28;43815;-79
2024/01/16 02:43:42;;;;;;;1.30;1.30;;;15.50;65.30;;;;;;5020375;28;44436;-79
2024/01/16 02:46:10;;;;;;;1.30;1.30;;;15.40;65.10;;;;;;5019938;28;43469;-81
2024/01/16 02:48:38;;;;;;;1.30;1.30;;;15.50;65.20;;;;;;5013155;28;44051;-80
2024/01/16 02:51:07;;;;;;;1.20;1.20;;;15.50;65.20;;;;;;5017528;28;44091;-80
2024/01/16 02:53:35;;;;;;;1.50;1.50;;;15.50;65.20;;;;;;5018032;28;44685;-80
2024/01/16 02:56:05;;;;;;;1.20;1.20;;;15.50;65.30;;;;;;5031304;28;44248;-81
2024/01/16 02:58:35;;;;;;;1.17;1.17;;;15.40;65.20;;;;;;5035567;28;43448;-81
2024/01/16 03:01:03;;;;;;;1.23;1.23;;;15.40;65.20;;;;;;5037935;28;43885;-81
2024/01/16 03:03:31;;;;;;;1.40;1.40;;;15.40;65.40;;;;;;5025430;28;44670;-80
2024/01/16 03:05:59;;;;;;;1.30;1.30;;;15.50;65.40;;;;;;5032945;28;43428;-81
2024/01/16 03:08:28;;;;;;;1.20;1.20;;;15.50;65.00;;;;;;5019911;28;43512;-81
2024/01/16 03:10:56;;;;;;;1.20;1.20;;;15.60;64.70;;;;;;5021413;28;45449;-81
2024/01/16 03:13:25;;;;;;;1.27;1.27;;;15.60;64.60;;;;;;5019946;28;43361;-81
2024/01/16 03:15:54;;;;;;;1.10;1.10;;;15.60;64.70;;;;;;5015487;28;43586;-82
2024/01/16 03:18:23;;;;;;;1.40;1.40;;;15.50;64.70;;;;;;5036175;28;43435;-79
2024/01/16 03:20:51;;;;;;;1.20;1.20;;;15.50;64.80;;;;;;5015750;28;45679;-81
2024/01/16 03:23:19;;;;;;;1.23;1.23;;;15.50;64.80;;;;;;5013473;28;43773;-80
2024/01/16 03:25:48;;;;;;;1.17;1.17;;;15.50;64.90;;;;;;5039883;28;43468;-80
2024/01/16 03:28:16;;;;;;;1.20;1.20;;;15.50;65.00;;;;;;5033328;28;43410;-79
2024/01/16 03:30:44;;;;;;;1.20;1.20;;;15.50;65.00;;;;;;5016171;28;45418;-81
2024/01/16 03:33:13;;;;;;;1.10;1.10;;;15.50;65.10;;;;;;5030818;28;43345;-82
2024/01/16 03:35:42;;;;;;;1.20;1.20;;;15.50;65.20;;;;;;5034742;28;43470;-80
2024/01/16 03:38:10;;;;;;;1.07;1.07;;;15.40;65.10;;;;;;5014628;28;43991;-77
2024/01/16 03:40:38;;;;;;;1.10;1.10;;;15.40;65.10;;;;;;5014425;28;45069;-78
2024/01/16 03:43:06;;;;;;;1.17;1.17;;;15.50;65.20;;;;;;5035612;28;43453;-77
2024/01/16 03:45:34;;;;;;;1.30;1.30;;;15.40;65.10;;;;;;5030708;28;43522;-76
2024/01/16 03:48:03;;;;;;;1.30;1.30;;;15.50;65.20;;;;;;5039305;28;43459;-78
2024/01/16 03:50:34;;;;;;;1.07;1.07;;;15.50;65.30;;;;;;5013714;28;45970;-76
2024/01/16 03:53:03;;;;;;;1.10;1.10;;;15.40;65.20;;;;;;5015949;28;44464;-77
2024/01/16 03:55:31;;;;;;;1.40;1.33;;;15.40;65.20;;;;;;5017714;28;43416;-77
2024/01/16 03:57:59;;;;;;;1.30;1.30;;;15.40;65.40;;;;;;5028904;28;43451;-78
2024/01/16 04:00:28;;;;;;;1.40;1.40;;;15.50;65.30;;;;;;5016495;28;46056;-79
2024/01/16 04:02:56;;;;;;;1.13;1.13;;;15.50;64.90;;;;;;5018503;28;44067;-76
2024/01/16 04:05:24;;;;;;;1.10;1.10;;;15.50;64.80;;;;;;5033588;28;43446;-78
2024/01/16 04:07:54;;;;;;;1.40;1.40;;;15.60;64.90;;;;;;5042841;28;43426;-77
2024/01/16 04:10:22;;;;;;;1.40;1.40;;;15.50;64.80;;;;;;5017339;28;46121;-76
2024/01/16 04:12:50;;;;;;;1.30;1.30;;;15.50;64.80;;;;;;5015885;28;43473;-78
2024/01/16 04:15:18;;;;;;;1.20;1.20;;;15.50;65.00;;;;;;5044194;28;43436;-75
2024/01/16 04:17:50;;;;;;;1.10;1.10;;;15.50;65.00;;;;;;5033662;28;43433;-78
2024/01/16 04:20:21;;;;;;;1.13;1.13;;;15.50;65.10;;;;;;5033305;28;44067;-77
2024/01/16 04:22:49;;;;;;;1.20;1.20;;;15.50;65.10;;;;;;5013644;28;45125;-76
2024/01/16 04:25:19;;;;;;;1.23;1.23;;;15.50;65.10;;;;;;5018797;28;43465;-76
2024/01/16 04:27:47;;;;;;;1.30;1.30;;;15.50;65.10;;;;;;5030073;28;44091;-76
2024/01/16 04:30:15;;;;;;;1.40;1.40;;;15.40;65.10;;;;;;5015375;28;46184;-75
2024/01/16 04:32:44;;;;;;;1.50;1.50;;;15.40;65.00;;;;;;5033876;28;43508;-78
2024/01/16 04:35:12;;;;;;;1.33;1.33;;;15.40;65.20;;;;;;5015628;28;43522;-76
2024/01/16 04:37:40;;;;;;;1.23;1.23;;;15.40;65.20;;;;;;5048182;28;43404;-75
2024/01/16 04:40:09;;;;;;;1.20;1.20;;;15.50;65.00;;;;;;5014910;28;45284;-76
2024/01/16 04:42:39;;;;;;;1.37;1.37;;;15.60;64.60;;;;;;5030427;28;43480;-78
2024/01/16 04:45:08;;;;;;;1.40;1.40;;;15.60;64.60;;;;;;5017345;28;43369;-78
2024/01/16 04:47:36;;;;;;;1.30;1.30;;;15.60;64.60;;;;;;5031590;28;43435;-78
2024/01/16 04:50:08;;;;;;;1.30;1.30;;;15.60;64.60;;;;;;5041985;28;43882;-82
2024/01/16 04:52:36;;;;;;;1.50;1.40;;;15.60;64.80;;;;;;5045765;28;43345;-81
2024/01/16 04:55:05;;;;;;;1.77;1.67;;;15.50;64.80;;;;;;5036373;28;43488;-81
2024/01/16 04:57:33;;;;;;;1.40;1.40;;;15.50;64.70;;;;;;5040336;28;43447;-80
2024/01/16 05:00:06;;;;;;;1.90;1.80;;;15.50;64.80;;;;;;5037444;28;44110;-83
2024/01/16 05:02:34;;;;;;;2.27;2.10;;;15.50;64.90;;;;;;5021351;28;43883;-81
2024/01/16 05:05:03;;;;;;;2.40;2.30;;;15.50;64.90;;;;;;5028988;28;43408;-80
2024/01/16 05:07:31;;;;;;;2.13;2.03;;;15.50;64.90;;;;;;5019415;28;43469;-81
2024/01/16 05:09:59;;;;;;;3.10;2.30;;;15.50;65.00;;;;;;5016443;28;44387;-83
2024/01/16 05:12:27;;;;;;;2.50;2.30;;;15.50;65.00;;;;;;5041925;28;43832;-84
2024/01/16 05:14:56;;;;;;;2.60;2.40;;;15.50;64.90;;;;;;5038990;28;43441;-81
2024/01/16 05:17:25;;;;;;;3.80;2.60;;;15.50;65.00;;;;;;5023045;28;43520;-78
2024/01/16 05:19:53;;;;;;;2.80;2.60;;;15.50;65.00;;;;;;5036844;28;43813;-79
2024/01/16 05:22:25;;;;;;;3.00;2.70;;;15.50;65.00;;;;;;5041876;28;43523;-81
2024/01/16 05:24:53;;;;;;;3.20;2.67;;;15.50;65.00;;;;;;5031178;28;43456;-79
2024/01/16 05:27:21;;;;;;;3.13;2.83;;;15.50;65.10;;;;;;5016419;28;43466;-79
2024/01/16 05:29:49;;;;;;;3.33;2.83;;;15.50;65.10;;;;;;5015699;28;46024;-80
2024/01/16 05:32:18;;;;;;;2.97;2.70;;;15.50;65.20;;;;;;5015589;28;45300;-82
2024/01/16 05:34:47;;;;;;;3.13;2.77;;;15.50;65.10;;;;;;5024301;28;43610;-82
2024/01/16 05:37:15;;;;;;;2.70;2.50;;;15.60;64.90;;;;;;5017621;28;43411;-81
2024/01/16 05:39:43;;;;;;;2.80;2.60;;;15.60;64.30;;;;;;5033887;28;43621;-82
2024/01/16 05:42:12;;;;;;;2.53;2.33;;;15.70;64.30;;;;;;5033339;28;43519;-82
2024/01/16 05:44:40;;;;;;;2.90;2.60;;;15.70;64.50;;;;;;5021006;28;43472;-81
2024/01/16 05:47:08;;;;;;;3.77;3.00;;;15.60;64.60;;;;;;5045432;28;43465;-80
2024/01/16 05:49:36;;;;;;;2.83;2.50;;;15.60;64.70;;;;;;5015297;28;45795;-82
2024/01/16 05:52:07;;;;;;;3.17;2.70;;;15.60;64.70;;;;;;5037844;28;43500;-83
2024/01/16 05:54:35;;;;;;;2.83;2.53;;;15.50;64.60;;;;;;5016721;28;43401;-83
2024/01/16 05:57:03;;;;;;;3.10;2.80;;;15.50;64.70;;;;;;5018293;28;43385;-82
2024/01/16 05:59:31;;;;;;;4.07;3.00;;;15.50;64.80;;;;;;5040893;28;43608;-76
2024/01/16 06:01:59;;;;;;;2.93;2.73;;;15.60;65.00;;;;;;5037400;28;43909;-76
2024/01/16 06:04:27;;;;;;;2.50;2.30;;;15.50;64.90;;;;;;5036399;28;44027;-76
2024/01/16 06:06:56;;;;;;;3.03;2.80;;;15.50;64.90;;;;;;5022265;28;43523;-76
2024/01/16 06:09:25;;;;;;;3.30;3.00;;;15.50;64.90;;;;;;5017678;28;45037;-76
2024/01/16 06:11:53;;;;;;;3.10;2.80;;;15.50;64.80;;;;;;5015295;28;44955;-76
2024/01/16 06:14:22;;;;;;;3.03;2.73;;;15.50;64.90;;;;;;5021998;28;43426;-76
2024/01/16 06:16:51;;;;;;;2.77;2.50;;;15.50;64.90;;;;;;5031860;28;43517;-76
2024/01/16 06:19:19;;;;;;;2.70;2.60;;;15.50;64.90;;;;;;5035552;28;43786;-76
2024/01/16 06:21:47;;;;;;;2.77;2.50;;;15.50;64.90;;;;;;5015745;28;44800;-76
2024/01/16 06:24:15;;;;;;;3.23;2.90;;;15.50;64.90;;;;;;5032242;28;43447;-75
2024/01/16 06:26:45;;;;;;;3.07;2.87;;;15.50;65.00;;;;;;5038743;28;43902;-76
2024/01/16 06:29:13;;;;;;;2.80;2.60;;;15.50;65.10;;;;;;5033980;28;43643;-76
2024/01/16 06:31:55;;;;;;;3.37;2.90;;;15.60;65.00;;;;;;5014454;28;44547;-75
2024/01/16 06:34:24;;;;;;;3.40;3.10;;;15.60;65.30;;;;;;5031195;28;43530;-75
2024/01/16 06:36:52;;;;;;;2.80;2.60;;;15.60;64.60;;;;;;5036080;28;43439;-76
2024/01/16 06:39:23;;;;;;;2.53;2.33;;;15.60;64.60;;;;;;5020798;28;45393;-76
2024/01/16 06:41:54;;;;;;;2.90;2.70;;;15.60;64.60;;;;;;5017155;28;45031;-76
2024/01/16 06:44:22;;;;;;;2.87;2.70;;;15.50;64.60;;;;;;5040058;28;43436;-76
2024/01/16 06:46:54;;;;;;;2.80;2.60;;;15.50;64.70;;;;;;5012893;28;43420;-76
2024/01/16 06:49:26;;;;;;;2.90;2.70;;;15.50;64.70;;;;;;5041229;28;44090;-76
2024/01/16 06:51:58;;;;;;;2.93;2.20;;;15.50;64.70;;;;;;5035619;28;43484;-76
2024/01/16 06:54:26;;;;;;;3.17;3.07;;;15.50;64.80;;;;;;5014305;28;43921;-77
2024/01/16 06:56:56;;;;;;;2.93;2.73;;;15.50;64.80;;;;;;5036098;28;43483;-75
2024/01/16 06:59:24;;;;;;;3.13;2.83;;;15.50;64.80;;;;;;5017359;28;46909;-76
2024/01/16 07:01:54;;;;;;;2.77;2.67;;;15.50;64.80;;;;;;5018959;28;44448;-76
2024/01/16 07:04:22;;;;;;;3.03;2.83;;;15.50;65.00;;;;;;5023846;28;43533;-75
2024/01/16 07:06:50;;;;;;;2.67;2.53;;;15.50;65.10;;;;;;5013500;28;43628;-76
2024/01/16 07:09:20;;;;;;;2.97;2.80;;;15.50;64.80;;;;;;5035976;28;43932;-75
2024/01/16 07:11:48;;;;;;;3.00;2.80;;;15.60;64.40;;;;;;5040144;28;43357;-75
2024/01/16 07:14:18;;;;;;;2.90;2.60;;;15.60;64.30;;;;;;5034942;28;43436;-75
2024/01/16 07:16:46;;;;;;;2.60;2.50;;;15.60;64.40;;;;;;5034002;28;43325;-74
2024/01/16 07:19:14;;;;;;;2.80;2.60;;;15.60;64.40;;;;;;5019634;28;45753;-75
2024/01/16 07:21:44;;;;;;;2.90;2.70;;;15.60;65.30;;;;;;5032556;28;43487;-75
2024/01/16 07:24:13;;;;;;;2.83;2.73;;;15.60;64.60;;;;;;5019639;28;43421;-76
2024/01/16 07:26:42;;;;;;;2.63;2.53;;;15.60;64.60;;;;;;5036193;28;43990;-76
2024/01/16 07:29:10;;;;;;;2.80;2.60;;;15.50;65.20;;;;;;5012501;28;45178;-76
2024/01/16 07:31:39;;;;;;;2.73;2.57;;;15.50;64.50;;;;;;5014093;28;44698;-75
2024/01/16 07:34:07;;;;;;;2.83;2.67;;;15.50;64.60;;;;;;5013240;28;43374;-74
2024/01/16 07:36:35;;;;;;;2.80;2.40;;;15.50;64.60;;;;;;5032609;28;44074;-75
2024/01/16 07:39:04;;;;;;;2.50;2.40;;;15.50;64.70;;;;;;5039991;28;43832;-75
2024/01/16 07:41:32;;;;;;;2.90;2.70;;;15.50;64.70;;;;;;5033854;28;43423;-76
2024/01/16 07:44:00;;;;;;;2.90;2.70;;;15.50;64.60;;;;;;5037882;28;43504;-74
2024/01/16 07:46:28;;;;;;;3.00;2.80;;;15.50;64.60;;;;;;5020911;28;43415;-75
2024/01/16 07:48:57;;;;;;;2.53;2.43;;;15.50;64.60;;;;;;5034088;28;43794;-74
2024/01/16 07:51:25;;;;;;;2.67;2.57;;;15.50;64.60;;;;;;5032396;28;44141;-77
2024/01/16 07:54:05;;;;;;;2.53;2.43;;;15.50;64.60;;;;;;5030774;28;43506;-74
2024/01/16 07:56:34;;;;;;;2.57;2.37;;;15.50;64.60;;;;;;5016020;28;43472;-75
2024/01/16 07:59:02;;;;;;;2.37;2.27;;;15.50;64.70;;;;;;5035081;28;43613;-74
2024/01/16 08:01:30;;;;;;;2.40;2.30;;;15.50;64.90;;;;;;5012516;28;44894;-75
2024/01/16 08:04:00;;;;;;;2.67;2.50;;;15.60;64.80;;;;;;5042513;28;43428;-75
2024/01/16 08:06:28;;;;;;;2.83;2.73;;;15.70;64.40;;;;;;5035081;28;43498;-75
2024/01/16 08:08:57;;;;;;;2.53;2.43;;;15.70;64.00;;;;;;5040690;28;43866;-75
2024/01/16 08:11:25;;;;;;;2.70;2.60;;;15.70;64.10;;;;;;5013493;28;44807;-75
2024/01/16 08:13:53;;;;;;;2.70;2.60;;;15.70;64.20;;;;;;5043239;28;43412;-75
2024/01/16 08:16:21;;;;;;;2.53;2.43;;;15.70;64.30;;;;;;5031469;28;43500;-77
2024/01/16 08:18:49;;;;;;;2.43;2.33;;;15.60;64.30;;;;;;5033147;28;43601;-82
2024/01/16 08:21:19;;;;;;;2.80;2.60;;;15.60;64.30;;;;;;5036933;28;43332;-81
2024/01/16 08:23:47;;;;;;;2.83;2.70;;;15.60;64.30;;;;;;5011889;28;44259;-82
2024/01/16 08:26:15;;;;;;;2.60;2.50;;;15.60;64.40;;;;;;5036051;28;43532;-82
2024/01/16 08:28:43;;;;;;;2.70;2.60;;;15.60;64.50;;;;;;5019496;28;46070;-80
2024/01/16 08:31:11;;;;;;;2.73;2.53;;;15.60;64.60;;;;;;5033884;28;43761;-82
2024/01/16 08:33:39;;;;;;;3.00;2.90;;;15.60;64.60;;;;;;5035717;28;43417;-82
2024/01/16 08:36:15;;;;;;;2.40;2.30;;;15.50;64.60;;;;;;5035509;28;43404;-82
2024/01/16 08:38:44;;;;;;;2.60;2.50;;;15.50;64.50;;;;;;5034463;28;43846;-82
2024/01/16 08:41:13;;;;;;;2.63;2.53;;;15.60;64.70;;;;;;5036589;28;44006;-80
2024/01/16 08:43:41;;;;;;;2.37;2.33;;;15.50;64.50;;;;;;5019472;28;43446;-82
2024/01/16 08:46:09;;;;;;;2.63;2.53;;;15.50;64.60;;;;;;5032859;28;43456;-82
2024/01/16 08:48:38;;;;;;;2.80;2.70;;;15.50;64.60;;;;;;5025104;28;45349;-82
2024/01/16 08:51:09;;;;;;;2.63;2.53;;;15.50;64.70;;;;;;5037390;28;43852;-82
2024/01/16 08:53:37;;;;;;;2.40;2.30;;;15.50;65.40;;;;;;5018382;28;43777;-82
2024/01/16 08:56:07;;;;;;;2.70;2.60;;;15.50;64.60;;;;;;5035568;28;43491;-82
2024/01/16 08:58:37;;;;;;;2.33;2.27;;;15.50;64.70;;;;;;5038062;28;43969;-81
2024/01/16 09:01:06;;;;;;;2.20;2.20;;;15.50;64.70;;;;;;5032133;28;43483;-81
2024/01/16 09:03:34;;;;;;;2.30;2.30;;;15.50;64.70;;;;;;5044071;28;43943;-82
2024/01/16 09:06:02;;;;;;;2.40;2.40;;;15.50;64.70;;;;;;5039267;28;43436;-77
2024/01/16 09:08:31;;;;;;;3.00;2.90;;;15.50;64.70;;;;;;5039137;28;43605;-82
2024/01/16 09:11:00;;;;;;;3.03;2.83;;;15.50;64.80;;;;;;5042394;28;43337;-80
2024/01/16 09:13:29;;;;;;;2.90;2.80;;;15.50;64.80;;;;;;5015851;28;43934;-82
2024/01/16 09:15:57;;;;;;;2.57;2.47;;;15.60;65.50;;;;;;5035536;28;43451;-82
2024/01/16 09:18:25;;;;;;;2.67;2.57;;;15.70;64.50;;;;;;5041332;28;43908;-82
2024/01/16 09:20:54;;;;;;;2.70;2.60;;;15.70;64.00;;;;;;5033007;28;43541;-82
2024/01/16 09:23:23;;;;;;;2.30;2.20;;;15.70;64.00;;;;;;5038221;28;43372;-82
2024/01/16 09:25:51;;;;;;;2.67;2.57;;;15.70;64.10;;;;;;5034777;28;43556;-82
2024/01/16 09:28:19;;;;;;;2.70;2.60;;;15.70;64.10;;;;;;5014697;28;45415;-76
2024/01/16 09:30:49;;;;;;;2.77;2.67;;;15.60;64.30;;;;;;5037913;28;43543;-75
2024/01/16 09:33:17;;;;;;;2.90;2.80;;;15.60;64.20;;;;;;5026783;28;43374;-75
2024/01/16 09:35:45;;;;;;;2.57;2.47;;;15.60;64.30;;;;;;5022937;28;43938;-76
2024/01/16 09:38:14;;;;;;;2.77;2.67;;;15.60;64.30;;;;;;5014788;28;45624;-74
2024/01/16 09:40:42;;;;;;;2.83;2.73;;;15.60;64.40;;;;;;5030937;28;44123;-73
2024/01/16 09:43:10;;;;;;;2.70;2.60;;;15.60;64.50;;;;;;5037225;28;43431;-76
2024/01/16 09:45:38;;;;;;;2.47;2.37;;;15.60;64.60;;;;;;5023132;28;43548;-75
2024/01/16 09:48:08;;;;;;;2.50;2.40;;;15.50;64.60;;;;;;5029758;28;45674;-75
2024/01/16 09:50:37;;;;;;;2.80;2.70;;;15.50;64.50;;;;;;5015574;28;45206;-76
2024/01/16 09:53:06;;;;;;;2.60;2.50;;;15.60;64.70;;;;;;5038446;28;43467;-76
2024/01/16 09:55:34;;;;;;;2.77;2.67;;;15.60;64.70;;;;;;5017560;28;43428;-76
2024/01/16 09:58:07;;;;;;;2.90;2.80;;;15.50;64.60;;;;;;5033075;28;43942;-75
2024/01/16 10:00:55;;;;;;;2.50;2.40;;;15.50;64.70;;;;;;5024874;28;44977;-75
2024/01/16 10:03:25;;;;;;;3.00;2.90;;;15.50;64.70;;;;;;5035420;28;43463;-76
2024/01/16 10:05:54;;;;;;;3.43;3.23;;;15.50;64.70;;;;;;5015931;28;43608;-75
2024/01/16 10:08:24;;;;;;;2.97;2.87;;;15.50;64.90;;;;;;5034739;28;43630;-75
2024/01/16 10:10:57;;;;;;;3.03;2.93;;;15.60;64.70;;;;;;5031364;28;43419;-75
2024/01/16 10:13:26;;;;;;;2.73;2.53;;;15.70;64.40;;;;;;5036315;28;44020;-76
2024/01/16 10:15:55;;;;;;;2.90;2.80;;;15.70;64.20;;;;;;5032568;28;43488;-75
2024/01/16 10:18:26;;;;;;;3.13;3.03;;;15.70;64.20;;;;;;5036144;28;43920;-75
2024/01/16 10:21:00;;;;;;;2.33;2.33;;;15.60;64.20;;;;;;5035762;28;43459;-75
2024/01/16 10:23:29;;;;;;;2.87;2.77;;;15.60;64.40;;;;;;5036343;28;43400;-74
2024/01/16 10:26:08;;;;;;;2.90;2.80;;;15.60;64.40;;;;;;5021554;28;43547;-77
2024/01/16 10:28:36;;;;;;;2.83;2.70;;;15.60;64.40;;;;;;5033921;28;43620;-76
2024/01/16 10:31:04;;;;;;;3.23;3.13;;;15.60;64.50;;;;;;5022831;28;44361;-75
2024/01/16 10:33:34;;;;;;;3.10;3.00;;;15.60;64.60;;;;;;5022347;28;44003;-76
2024/01/16 10:36:10;;;;;;;2.60;2.60;;;15.50;64.50;;;;;;5034808;28;43395;-75
2024/01/16 10:38:39;;;;;;;2.93;2.83;;;15.50;64.50;;;;;;5035635;28;43684;-82
2024/01/16 10:41:09;;;;;;;2.90;2.80;;;15.50;64.60;;;;;;5043577;28;43488;-82
2024/01/16 10:43:37;;;;;;;2.63;2.53;;;15.50;64.70;;;;;;5037084;28;43390;-83
2024/01/16 10:46:12;;;;;;;3.07;2.97;;;15.50;64.60;;;;;;5031259;28;43439;-82
2024/01/16 10:48:42;;;;;;;2.80;2.70;;;15.60;64.70;;;;;;5018215;28;45300;-82
2024/01/16 10:51:12;;;;;;;2.50;2.40;;;15.60;64.70;;;;;;5041196;28;43451;-81
2024/01/16 10:53:44;;;;;;;3.03;2.93;;;15.60;64.80;;;;;;5011179;28;43472;-82
2024/01/16 10:56:13;;;;;;;2.97;2.87;;;15.60;64.80;;;;;;5043998;28;43390;-82
2024/01/16 10:58:42;;;;;;;2.90;2.80;;;15.60;64.80;;;;;;5032125;28;43922;-82
2024/01/16 11:01:11;;;;;;;3.03;2.93;;;15.60;64.90;;;;;;5014939;28;44544;-82
2024/01/16 11:03:44;;;;;;;3.20;3.10;;;15.60;65.00;;;;;;5034592;28;43583;-82
2024/01/16 11:06:13;;;;;;;2.93;2.83;;;15.60;64.70;;;;;;5044200;28;43903;-82
2024/01/16 11:08:41;;;;;;;3.30;3.20;;;15.70;64.30;;;;;;5034456;28;43612;-80
2024/01/16 11:11:09;;;;;;;3.33;3.13;;;15.70;64.10;;;;;;5024461;28;43944;-79
2024/01/16 11:13:38;;;;;;;3.03;2.93;;;15.70;64.10;;;;;;5032677;28;43427;-78
2024/01/16 11:16:07;;;;;;;3.00;2.90;;;15.70;64.30;;;;;;5035707;28;43385;-83
2024/01/16 11:18:36;;;;;;;2.87;2.77;;;15.70;64.30;;;;;;5028118;28;43620;-81
2024/01/16 11:21:07;;;;;;;2.83;2.73;;;15.70;64.50;;;;;;5033572;28;43392;-81
2024/01/16 11:23:40;;;;;;;3.10;3.00;;;15.70;64.50;;;;;;5016647;28;43479;-80
2024/01/16 11:26:27;;;;;;;3.07;2.97;;;15.70;64.50;;;;;;5027490;28;43515;-81
2024/01/16 11:28:56;;;;;;;2.87;2.77;;;15.70;64.60;;;;;;5016406;28;46513;-82
2024/01/16 11:31:31;;;;;;;3.40;3.30;;;15.70;64.60;;;;;;5034768;28;43374;-79
2024/01/16 11:34:00;;;;;;;3.00;2.90;;;15.60;64.50;;;;;;5034955;28;43367;-83
2024/01/16 11:36:50;;;;;;;3.23;3.03;;;15.60;64.60;;;;;;5032338;28;43443;-83
2024/01/16 11:39:18;;;;;;;2.80;2.60;;;15.60;64.60;;;;;;5023019;28;46421;-83
2024/01/16 11:41:52;;;;;;;2.90;2.80;;;15.60;64.60;;;;;;5034512;28;43489;-83
2024/01/16 11:44:40;;;;;;;3.10;3.00;;;15.60;64.60;;;;;;5038519;28;43500;-83
2024/01/16 11:47:08;;;;;;;3.20;3.10;;;15.60;64.60;;;;;;5017676;28;43425;-81
2024/01/16 11:49:37;;;;;;;2.93;2.83;;;15.60;64.60;;;;;;5016215;28;45949;-76
2024/01/16 11:52:07;;;;;;;2.67;2.60;;;15.70;64.80;;;;;;5035609;28;43484;-76
2024/01/16 11:54:35;;;;;;;2.70;2.60;;;15.60;64.60;;;;;;5034534;28;43386;-76
2024/01/16 11:57:37;;;;;;;3.07;2.97;;;15.60;64.70;;;;;;5012189;28;43418;-75
2024/01/16 12:00:12;;;;;;;3.00;2.90;;;15.70;64.70;;;;;;5017080;28;45379;-74
2024/01/16 12:02:50;;;;;;;2.53;2.50;;;15.80;64.40;;;;;;5016670;28;44824;-74
2024/01/16 12:05:19;;;;;;;3.20;3.10;;;15.80;64.00;;;;;;5038674;28;43404;-77
2024/01/16 12:07:50;;;;;;;2.53;2.43;;;15.80;64.00;;;;;;5022464;28;43580;-77
2024/01/16 12:10:18;;;;;;;3.17;3.07;;;15.80;64.10;;;;;;5031463;28;43802;-74
2024/01/16 12:12:47;;;;;;;3.03;2.93;;;15.80;64.20;;;;;;5034492;28;43485;-74
2024/01/16 12:15:17;;;;;;;3.30;3.20;;;15.70;64.30;;;;;;5013371;28;43388;-74
2024/01/16 12:17:55;;;;;;;3.00;2.80;;;15.70;64.30;;;;;;5018349;28;43524;-77
2024/01/16 12:20:24;;;;;;;3.20;3.10;;;15.70;64.40;;;;;;5037013;28;43612;-74
2024/01/16 12:22:57;;;;;;;3.13;3.00;;;15.70;64.40;;;;;;5030356;28;43401;-76
2024/01/16 12:25:26;;;;;;;3.10;2.90;;;15.70;64.50;;;;;;5028083;28;43425;-74
2024/01/16 12:28:17;;;;;;;3.50;3.40;;;15.70;64.50;;;;;;5013434;28;43561;-74
2024/01/16 12:30:59;;;;;;;3.00;2.90;;;15.70;64.60;;;;;;5031166;28;43588;-74
2024/01/16 12:33:28;;;;;;;3.30;3.10;;;15.60;64.60;;;;;;5027085;28;44401;-76
2024/01/16 12:36:02;;;;;;;3.10;3.00;;;15.70;64.70;;;;;;5018609;28;43451;-74
2024/01/16 12:38:31;;;;;;;3.10;3.00;;;15.60;64.60;;;;;;5032237;28;43393;-75
2024/01/16 12:41:01;;;;;;;2.93;2.83;;;15.70;64.70;;;;;;5032272;28;43835;-76
2024/01/16 12:43:31;;;;;;;2.80;2.70;;;15.70;64.70;;;;;;5032352;28;43912;-74
2024/01/16 12:45:59;;;;;;;3.37;3.27;;;15.70;64.70;;;;;;5037696;28;44044;-77
2024/01/16 12:48:27;;;;;;;2.97;2.87;;;15.60;64.60;;;;;;5037017;28;43944;-77
2024/01/16 12:51:00;;;;;;;3.30;3.20;;;15.60;64.70;;;;;;5039777;28;45642;-75
2024/01/16 12:53:28;;;;;;;3.03;2.90;;;15.60;64.70;;;;;;5027592;28;43881;-73
2024/01/16 12:56:03;;;;;;;3.00;2.90;;;15.70;64.60;;;;;;5038731;28;43440;-76
2024/01/16 12:58:34;;;;;;;3.10;2.90;;;15.80;64.20;;;;;;5018338;28;43681;-81
2024/01/16 13:01:24;;;;;;;3.20;3.10;;;15.80;64.00;;;;;;5016209;28;44078;-81